Pagrindinis puslapis
METAR-TAF:

METAR-TAF

Oro uostai :

Charbinas, Kinija

platuma: 45-45N, ilguma: 126-46E, Aukštis: 143 m

Dabartinis oras

Ataskaita buvo paskelbta 53 minutes, ne 23:00 UTC
Vėjas 4 kt iš Pietų/Pietryčių, svyruoja nuo Rytų/Pietryčių ir Pietų
Temperatūra 9°C
Drėgmė 76%
Slėgis 1017 hPa
Matomumas 10 km arba daugiau
nėra debesų žemiau 1500 m ir nėra kamuolinių lietaus debesų

METAR: ZYHB 192300Z 16002MPS 110V190 CAVOK 09/05 Q1017 NOSIG

Laikas: 07:53 (23:53 UTC)

Prognozė

Ataskaita buvo paskelbta 4 valandos ir 41 minutes, ne 19:12 UTC
Prognozė galioja nuo 20 metu 00 UTC su 20 metu 24 UTC
Vėjas 6 kt iš Pietų
Matomumas: 6000 m
Išsisklaidę debesys ne aukštis 3000 ft
Tapsmas
nuo 20 metu 11 UTC su 20 metu 13 UTC
Vėjas 10 kt iš Vakarų/Šiaurės Vakarų

TAF: ZYHB 191912Z 2000/2024 17003MPS 6000 SCT030 TX20/2006Z TN05/2021Z BECMG 2011/2013 30005MPS

Orai ataskaitas ir orų prognozės (METAR, TAF).

turimą stotys yra geltonos ir raudonos taškus žemėlapyje.

Perkelti pele per norėdami pamatyti stoties vardą.

Tada spustelėkite, norėdami matyti oro stebėjimo ir prognozės.

Norėdami pakeisti žemėlapį: spustelėkite ant žalios mygtukų su juodo kryžiaus žemyn,; žalią mygtuką su brūkšneliu, jei norite nutolinti; arba žalių rodyklių gretimoms žemėlapius.


METAR-TAF: